createdAt,value
2018-03-29T00:00:27.394Z,32.40
2018-03-29T00:02:53.761Z,33.23
2018-03-29T00:05:20.132Z,33.97
2018-03-29T00:07:46.498Z,35.73
2018-03-29T00:10:12.861Z,34.17
2018-03-29T00:12:39.247Z,32.53
2018-03-29T00:15:05.638Z,30.93
2018-03-29T00:17:32.059Z,35.47
2018-03-29T00:19:58.434Z,34.17
2018-03-29T00:22:24.839Z,33.53
2018-03-29T00:24:51.238Z,35.03
2018-03-29T00:27:17.622Z,33.43
2018-03-29T00:29:44.019Z,34.47
2018-03-29T00:32:10.394Z,36.47
2018-03-29T00:34:36.763Z,35.53
2018-03-29T00:37:03.130Z,39.87
2018-03-29T00:39:29.489Z,40.30
2018-03-29T00:41:56.280Z,39.17
2018-03-29T00:44:22.636Z,43.20
2018-03-29T00:46:49.130Z,39.83
2018-03-29T00:49:15.545Z,43.53
2018-03-29T00:51:41.981Z,42.47
2018-03-29T00:54:08.366Z,39.33
2018-03-29T00:56:34.726Z,40.03
2018-03-29T00:59:01.085Z,44.10
2018-03-29T01:01:27.467Z,43.60
2018-03-29T01:03:53.841Z,46.37
2018-03-29T01:06:21.215Z,48.37
2018-03-29T01:08:47.586Z,49.00
2018-03-29T01:11:14.013Z,49.47
2018-03-29T01:13:40.387Z,49.67
2018-03-29T01:16:06.928Z,52.93
2018-03-29T01:18:33.338Z,50.90
2018-03-29T01:20:59.761Z,48.17
2018-03-29T01:23:26.234Z,45.63
2018-03-29T01:25:52.588Z,49.40
2018-03-29T01:28:18.990Z,46.23
2018-03-29T01:30:45.383Z,46.90
2018-03-29T01:33:11.750Z,46.10
2018-03-29T01:35:38.126Z,37.33
2018-03-29T01:38:04.561Z,43.53
2018-03-29T01:40:30.929Z,42.50
2018-03-29T01:42:57.367Z,42.50
2018-03-29T01:45:23.778Z,40.27
2018-03-29T01:47:50.238Z,40.43
2018-03-29T01:50:16.636Z,39.80
2018-03-29T01:52:43.085Z,43.13
2018-03-29T01:55:09.448Z,40.30
2018-03-29T01:57:35.862Z,39.80
2018-03-29T02:00:02.342Z,37.13
2018-03-29T02:02:28.819Z,37.63
2018-03-29T02:04:55.241Z,39.50
2018-03-29T02:07:21.628Z,36.10
2018-03-29T02:09:48.174Z,44.87
2018-03-29T02:12:14.626Z,39.80
2018-03-29T02:14:41.078Z,40.00
2018-03-29T02:17:07.490Z,39.80
2018-03-29T02:19:33.952Z,40.97
2018-03-29T02:22:00.386Z,45.43
2018-03-29T02:24:26.777Z,42.13
2018-03-29T02:26:53.225Z,43.13
2018-03-29T02:29:19.601Z,48.07
2018-03-29T02:31:45.988Z,41.47
2018-03-29T02:34:12.362Z,46.23
2018-03-29T02:36:38.763Z,46.00
2018-03-29T02:39:05.190Z,49.93
2018-03-29T02:41:31.632Z,48.63
2018-03-29T02:43:58.044Z,51.37
2018-03-29T02:46:24.399Z,53.53
2018-03-29T02:48:50.798Z,57.00
2018-03-29T02:51:17.192Z,54.90
2018-03-29T02:53:43.554Z,50.40
2018-03-29T02:56:09.922Z,55.97
2018-03-29T02:58:36.291Z,54.17
2018-03-29T03:01:02.718Z,54.43
2018-03-29T03:03:29.070Z,60.67
2018-03-29T03:05:55.562Z,58.77
2018-03-29T03:08:22.060Z,64.83
2018-03-29T03:10:48.455Z,59.70
2018-03-29T03:13:14.828Z,62.30
2018-03-29T03:15:41.260Z,61.43
2018-03-29T03:18:07.658Z,55.27
2018-03-29T03:20:34.058Z,62.90
2018-03-29T03:23:00.436Z,63.33
2018-03-29T03:25:26.796Z,56.90
2018-03-29T03:27:53.258Z,63.80
2018-03-29T03:30:19.846Z,57.77
2018-03-29T03:32:46.246Z,58.80
2018-03-29T03:35:12.633Z,58.57
2018-03-29T03:37:39.058Z,53.27
2018-03-29T03:40:05.466Z,53.17
2018-03-29T03:42:32.019Z,54.53
2018-03-29T03:44:58.440Z,56.40
2018-03-29T03:47:24.821Z,53.33
2018-03-29T03:49:51.279Z,49.00
2018-03-29T03:52:17.678Z,51.03
2018-03-29T03:54:44.077Z,52.57
2018-03-29T03:57:10.453Z,50.17
2018-03-29T03:59:36.845Z,53.27
2018-03-29T04:02:03.236Z,52.07
2018-03-29T04:04:29.606Z,55.13
2018-03-29T04:06:55.974Z,56.80
2018-03-29T04:09:22.417Z,58.87
2018-03-29T04:11:48.830Z,56.03
2018-03-29T04:14:15.210Z,59.83
2018-03-29T04:16:41.841Z,68.70
2018-03-29T04:19:08.404Z,57.77
2018-03-29T04:21:34.885Z,64.63
2018-03-29T04:24:01.267Z,64.00
2018-03-29T04:26:27.712Z,61.90
2018-03-29T04:28:54.080Z,66.77
2018-03-29T04:31:20.470Z,72.73
2018-03-29T04:33:46.834Z,71.87
2018-03-29T04:36:13.189Z,63.83
2018-03-29T04:38:39.569Z,64.53
2018-03-29T04:41:06.004Z,74.57
2018-03-29T04:43:32.566Z,66.67
2018-03-29T04:45:58.981Z,62.80
2018-03-29T04:48:25.414Z,79.07
2018-03-29T04:50:51.850Z,72.10
2018-03-29T04:53:18.361Z,92.63
2018-03-29T04:55:44.797Z,75.80
2018-03-29T04:58:11.174Z,73.23
2018-03-29T05:00:37.565Z,65.17
2018-03-29T05:03:03.996Z,91.57
2018-03-29T05:05:30.391Z,79.03
2018-03-29T05:07:56.770Z,69.23
2018-03-29T05:10:23.174Z,71.20
2018-03-29T05:12:49.546Z,62.73
2018-03-29T05:15:15.969Z,58.40
2018-03-29T05:17:42.354Z,62.00
2018-03-29T05:20:08.812Z,62.90
2018-03-29T05:22:35.489Z,73.27
2018-03-29T05:25:01.921Z,89.77
2018-03-29T05:27:28.386Z,98.47
2018-03-29T05:29:54.770Z,99.17
2018-03-29T05:32:21.150Z,85.80
2018-03-29T05:34:47.568Z,69.33
2018-03-29T05:37:14.038Z,71.33
2018-03-29T05:39:40.454Z,71.03
2018-03-29T05:42:06.825Z,59.47
2018-03-29T05:44:33.314Z,55.73
2018-03-29T05:46:59.767Z,77.87
2018-03-29T05:49:26.145Z,61.00
2018-03-29T05:51:52.638Z,68.47
2018-03-29T05:54:19.034Z,52.53
2018-03-29T05:56:45.410Z,57.03
2018-03-29T05:59:11.761Z,57.10
2018-03-29T06:01:38.188Z,55.53
2018-03-29T06:04:04.724Z,53.53
2018-03-29T06:06:31.133Z,54.27
2018-03-29T06:08:57.499Z,58.37
2018-03-29T06:11:23.866Z,58.40
2018-03-29T06:13:56.425Z,55.97
2018-03-29T06:16:22.830Z,55.67
2018-03-29T06:18:49.247Z,48.13
2018-03-29T06:21:15.618Z,49.83
2018-03-29T06:23:42.130Z,47.53
2018-03-29T06:26:08.845Z,49.70
2018-03-29T06:28:35.240Z,49.07
2018-03-29T06:31:01.574Z,46.33
2018-03-29T06:33:27.990Z,48.27
2018-03-29T06:35:54.437Z,50.17
2018-03-29T06:38:20.802Z,48.40
2018-03-29T06:40:47.166Z,50.83
2018-03-29T06:43:13.597Z,52.07
2018-03-29T06:45:39.965Z,58.20
2018-03-29T06:48:06.318Z,46.73
2018-03-29T06:50:32.703Z,50.97
2018-03-29T06:52:59.069Z,52.60
2018-03-29T06:55:25.558Z,42.50
2018-03-29T06:57:51.923Z,40.93
2018-03-29T07:00:18.302Z,46.57
2018-03-29T07:02:44.674Z,47.83
2018-03-29T07:05:11.042Z,50.00
2018-03-29T07:07:37.456Z,47.43
2018-03-29T07:10:03.945Z,46.53
2018-03-29T07:12:30.339Z,42.47
2018-03-29T07:14:56.866Z,41.27
2018-03-29T07:17:23.215Z,42.27
2018-03-29T07:19:49.593Z,36.70
2018-03-29T07:22:15.969Z,37.33
2018-03-29T07:24:42.330Z,35.33
2018-03-29T07:27:08.702Z,35.23
2018-03-29T07:29:35.054Z,31.53
2018-03-29T07:32:01.420Z,32.70
2018-03-29T07:34:27.796Z,35.47
2018-03-29T07:36:54.191Z,33.87
2018-03-29T07:39:20.729Z,32.93
2018-03-29T07:41:50.314Z,33.77
2018-03-29T07:44:24.411Z,33.57
2018-03-29T07:46:53.261Z,34.43
2018-03-29T07:49:19.791Z,34.03
2018-03-29T07:51:46.153Z,30.47
2018-03-29T07:54:12.505Z,27.97
2018-03-29T07:56:38.882Z,27.67
2018-03-29T07:59:05.274Z,26.53
2018-03-29T08:01:31.649Z,22.17
2018-03-29T08:03:58.031Z,18.90
2018-03-29T08:06:24.574Z,23.30
2018-03-29T08:08:50.950Z,20.47
2018-03-29T08:11:17.336Z,22.90
2018-03-29T08:13:43.698Z,21.57
2018-03-29T08:16:10.062Z,20.33
2018-03-29T08:18:36.485Z,21.30
2018-03-29T08:21:02.846Z,20.70
2018-03-29T08:23:29.191Z,17.23
2018-03-29T08:25:55.571Z,18.87
2018-03-29T08:28:22.004Z,15.40
2018-03-29T08:30:48.374Z,16.30
2018-03-29T08:33:14.750Z,14.60
2018-03-29T08:35:41.138Z,20.23
2018-03-29T08:38:07.494Z,16.40
2018-03-29T08:40:33.889Z,14.93
2018-03-29T08:43:00.302Z,17.30
2018-03-29T08:45:26.670Z,15.17
2018-03-29T08:47:53.039Z,19.03
2018-03-29T08:50:19.659Z,18.03
2018-03-29T08:52:46.315Z,16.13
2018-03-29T08:55:12.725Z,13.33
2018-03-29T08:57:39.101Z,12.40
2018-03-29T09:00:05.717Z,12.33
2018-03-29T09:02:32.134Z,11.37
2018-03-29T09:04:58.870Z,14.27
2018-03-29T09:07:25.239Z,14.73
2018-03-29T09:09:51.842Z,13.17
2018-03-29T09:12:18.217Z,13.93
2018-03-29T09:14:44.614Z,13.37
2018-03-29T09:17:11.002Z,13.93
2018-03-29T09:19:37.576Z,13.93
2018-03-29T09:22:04.106Z,15.47
2018-03-29T09:24:30.470Z,10.87
2018-03-29T09:26:56.869Z,10.43
2018-03-29T09:29:23.234Z,15.43
2018-03-29T09:31:49.613Z,11.97
2018-03-29T09:34:16.113Z,13.63
2018-03-29T09:36:42.642Z,11.03
2018-03-29T09:39:09.038Z,11.70
2018-03-29T09:41:35.714Z,10.10
2018-03-29T09:44:02.081Z,10.37
2018-03-29T09:46:28.485Z,11.47
2018-03-29T09:48:54.874Z,13.93
2018-03-29T09:51:21.344Z,11.27
2018-03-29T09:53:47.692Z,15.57
2018-03-29T09:56:14.073Z,12.40
2018-03-29T09:58:40.529Z,13.03
2018-03-29T10:01:06.962Z,11.60
2018-03-29T10:03:39.595Z,10.47
2018-03-29T10:06:06.077Z,12.27
2018-03-29T10:08:32.481Z,11.43
2018-03-29T10:10:59.019Z,12.80
2018-03-29T10:13:25.413Z,11.70
2018-03-29T10:15:51.942Z,11.13
2018-03-29T10:18:18.304Z,11.63
2018-03-29T10:20:44.733Z,9.73
2018-03-29T10:23:11.140Z,10.00
2018-03-29T10:25:37.618Z,9.80
2018-03-29T10:28:04.014Z,9.87
2018-03-29T10:30:30.673Z,10.73
2018-03-29T10:32:57.089Z,11.07
2018-03-29T10:35:23.482Z,10.13
2018-03-29T10:37:54.300Z,9.83
2018-03-29T10:40:54.246Z,11.53
2018-03-29T10:43:21.203Z,10.27
2018-03-29T10:45:49.538Z,8.93
2018-03-29T10:48:16.913Z,9.93
2018-03-29T10:50:46.038Z,8.53
2018-03-29T10:53:21.799Z,9.13
2018-03-29T10:55:51.421Z,8.60
2018-03-29T10:58:18.002Z,7.87
2018-03-29T11:00:44.481Z,9.20
2018-03-29T11:03:11.089Z,8.17
2018-03-29T11:05:37.622Z,8.53
2018-03-29T11:08:04.178Z,8.90
2018-03-29T11:10:30.646Z,7.77
2018-03-29T11:12:57.014Z,11.07
2018-03-29T11:15:23.458Z,7.70
2018-03-29T11:17:49.843Z,9.83
2018-03-29T11:20:16.290Z,8.33
2018-03-29T11:22:42.685Z,9.73
2018-03-29T11:25:09.154Z,9.37
2018-03-29T11:27:35.577Z,8.73
2018-03-29T11:30:02.186Z,10.67
2018-03-29T11:32:28.678Z,9.20
2018-03-29T11:34:55.097Z,10.53
2018-03-29T11:37:21.754Z,8.80
2018-03-29T11:39:48.169Z,9.43
2018-03-29T11:42:14.666Z,9.57
2018-03-29T11:44:41.158Z,7.37
2018-03-29T11:47:07.571Z,6.43
2018-03-29T11:49:34.007Z,6.73
2018-03-29T11:52:00.510Z,8.77
2018-03-29T11:54:26.904Z,9.73
2018-03-29T11:56:53.326Z,10.03
2018-03-29T11:59:19.829Z,8.83
2018-03-29T12:01:46.214Z,8.93
2018-03-29T12:04:12.730Z,8.50
2018-03-29T12:06:39.185Z,10.13
2018-03-29T12:09:05.806Z,10.03
2018-03-29T12:11:32.357Z,10.50
2018-03-29T12:13:58.798Z,9.10
2018-03-29T12:16:25.258Z,10.50
2018-03-29T12:18:51.738Z,10.70
2018-03-29T12:21:18.178Z,11.30
2018-03-29T12:23:44.593Z,9.57
2018-03-29T12:26:11.146Z,11.53
2018-03-29T12:28:37.569Z,10.87
2018-03-29T12:31:04.087Z,12.10
2018-03-29T12:33:30.503Z,13.47
2018-03-29T12:35:56.998Z,12.43
2018-03-29T12:38:23.458Z,14.50
2018-03-29T12:40:49.861Z,13.33
2018-03-29T12:43:16.242Z,14.43
2018-03-29T12:45:42.671Z,14.50
2018-03-29T12:48:09.200Z,14.70
2018-03-29T12:50:35.626Z,16.77
2018-03-29T12:53:02.033Z,15.97
2018-03-29T12:55:38.554Z,15.57
2018-03-29T12:58:11.784Z,17.40
2018-03-29T13:00:38.271Z,19.27
2018-03-29T13:03:04.749Z,17.47
2018-03-29T13:05:31.170Z,19.37
2018-03-29T13:07:57.605Z,19.03
2018-03-29T13:10:24.066Z,22.07
2018-03-29T13:12:50.611Z,15.37
2018-03-29T13:15:17.050Z,15.40
2018-03-29T13:17:43.417Z,17.77
2018-03-29T13:20:09.865Z,17.93
2018-03-29T13:22:36.409Z,17.77
2018-03-29T13:25:02.958Z,17.73
2018-03-29T13:27:29.414Z,17.40
2018-03-29T13:29:55.806Z,15.43
2018-03-29T13:32:22.268Z,12.87
2018-03-29T13:34:48.738Z,14.77
2018-03-29T13:37:15.246Z,10.47
2018-03-29T13:39:41.633Z,13.00
2018-03-29T13:42:08.037Z,15.30
2018-03-29T13:44:34.516Z,10.77
2018-03-29T13:47:01.013Z,12.63
2018-03-29T13:49:27.513Z,10.70
2018-03-29T13:51:53.882Z,11.20
2018-03-29T13:54:20.290Z,9.97
2018-03-29T13:56:46.704Z,8.67
2018-03-29T13:59:13.122Z,15.73
2018-03-29T14:01:39.546Z,8.50
2018-03-29T14:04:06.044Z,8.80
2018-03-29T14:06:32.539Z,8.97
2018-03-29T14:08:59.028Z,12.97
2018-03-29T14:11:25.509Z,12.53
2018-03-29T14:13:51.948Z,13.97
2018-03-29T14:16:18.314Z,10.97
2018-03-29T14:18:44.772Z,12.17
2018-03-29T14:21:11.141Z,10.27
2018-03-29T14:23:37.935Z,9.33
2018-03-29T14:26:04.547Z,9.93
2018-03-29T14:28:30.930Z,10.50
2018-03-29T14:30:57.549Z,8.83
2018-03-29T14:33:23.954Z,9.67
2018-03-29T14:35:50.608Z,9.37
2018-03-29T14:38:17.286Z,10.00
2018-03-29T14:40:43.813Z,11.83
2018-03-29T14:43:10.302Z,11.80
2018-03-29T14:45:36.794Z,9.90
2018-03-29T14:48:03.214Z,11.57
2018-03-29T14:50:29.641Z,8.40
2018-03-29T14:52:56.150Z,7.60
2018-03-29T14:55:22.594Z,8.07
2018-03-29T14:57:49.022Z,8.77
2018-03-29T15:00:16.237Z,10.07
2018-03-29T15:02:42.701Z,12.53
2018-03-29T15:05:09.150Z,9.80
2018-03-29T15:07:35.662Z,9.07
2018-03-29T15:10:02.145Z,12.00
2018-03-29T15:12:28.557Z,9.67
2018-03-29T15:14:54.934Z,11.70
2018-03-29T15:17:21.386Z,10.60
2018-03-29T15:19:47.865Z,14.67
2018-03-29T15:22:14.286Z,11.70
2018-03-29T15:24:40.706Z,10.07
2018-03-29T15:27:07.142Z,10.83
2018-03-29T15:29:33.628Z,10.67
2018-03-29T15:32:00.146Z,10.27
2018-03-29T15:34:26.654Z,12.50
2018-03-29T15:36:53.025Z,9.63
2018-03-29T15:39:19.443Z,14.63
2018-03-29T15:41:45.873Z,15.57
2018-03-29T15:44:12.274Z,16.57
2018-03-29T15:46:38.765Z,13.53
2018-03-29T15:49:05.174Z,22.13
2018-03-29T15:51:31.569Z,33.43
2018-03-29T15:53:58.007Z,23.30
2018-03-29T15:56:24.434Z,24.23
2018-03-29T15:58:50.852Z,18.70
2018-03-29T16:01:17.353Z,17.43
2018-03-29T16:03:43.778Z,21.60
2018-03-29T16:06:10.218Z,16.97
2018-03-29T16:08:36.710Z,22.13
2018-03-29T16:11:03.181Z,19.67
2018-03-29T16:13:29.654Z,20.77
2018-03-29T16:15:56.121Z,18.87
2018-03-29T16:18:22.510Z,19.67
2018-03-29T16:20:48.941Z,20.20
2018-03-29T16:23:15.390Z,19.57
2018-03-29T16:25:41.738Z,17.70
2018-03-29T16:28:08.117Z,19.27
2018-03-29T16:30:34.678Z,25.40
2018-03-29T16:33:01.085Z,27.33
2018-03-29T16:35:27.474Z,26.20
2018-03-29T16:37:53.967Z,29.77
2018-03-29T16:40:20.330Z,30.27
2018-03-29T16:42:46.829Z,31.43
2018-03-29T16:45:13.226Z,35.13
2018-03-29T16:47:39.681Z,34.40
2018-03-29T16:50:06.133Z,35.60
2018-03-29T16:52:32.510Z,34.60
2018-03-29T16:54:58.996Z,37.80
2018-03-29T16:57:25.443Z,36.50
2018-03-29T16:59:51.841Z,37.80
2018-03-29T17:02:18.257Z,41.93
2018-03-29T17:04:44.754Z,39.73
2018-03-29T17:07:11.100Z,37.07
2018-03-29T17:09:37.534Z,51.50
2018-03-29T17:12:03.986Z,55.43
2018-03-29T17:14:30.441Z,55.60
2018-03-29T17:16:56.898Z,53.93
2018-03-29T17:19:23.373Z,59.80
2018-03-29T17:21:49.830Z,58.07
2018-03-29T17:24:16.245Z,53.90
2018-03-29T17:26:42.856Z,50.70
2018-03-29T17:29:09.301Z,64.97
2018-03-29T17:31:35.779Z,68.63
2018-03-29T17:34:02.177Z,76.77
2018-03-29T17:36:28.650Z,74.93
2018-03-29T17:38:55.106Z,78.87
2018-03-29T17:41:21.497Z,86.60
2018-03-29T17:43:47.941Z,80.23
2018-03-29T17:46:14.447Z,90.00
2018-03-29T17:48:40.898Z,89.67
2018-03-29T17:51:07.350Z,98.87
2018-03-29T17:53:33.737Z,99.17
2018-03-29T17:56:00.232Z,96.03
2018-03-29T17:58:26.603Z,87.20
2018-03-29T18:00:53.019Z,97.50
2018-03-29T18:03:19.427Z,98.40
2018-03-29T18:05:45.873Z,100.33
2018-03-29T18:08:12.280Z,93.00
2018-03-29T18:10:38.734Z,98.17
2018-03-29T18:13:05.149Z,95.10
2018-03-29T18:15:31.560Z,83.33
2018-03-29T18:17:57.965Z,88.33
2018-03-29T18:20:24.366Z,87.77
2018-03-29T18:22:50.786Z,92.57
2018-03-29T18:25:17.222Z,88.43
2018-03-29T18:27:43.625Z,82.10
2018-03-29T18:30:10.033Z,82.60
2018-03-29T18:32:36.493Z,86.20
2018-03-29T18:35:02.957Z,84.77
2018-03-29T18:37:29.382Z,86.20
2018-03-29T18:39:55.780Z,89.93
2018-03-29T18:42:22.206Z,89.23
2018-03-29T18:44:48.666Z,119.67
2018-03-29T18:47:15.037Z,123.33
2018-03-29T18:49:41.564Z,102.63
2018-03-29T18:52:08.038Z,80.03
2018-03-29T18:54:34.422Z,64.07
2018-03-29T18:57:00.806Z,64.60
2018-03-29T18:59:27.214Z,54.23
2018-03-29T19:01:53.641Z,52.60
2018-03-29T19:04:20.146Z,59.07
2018-03-29T19:06:46.515Z,56.47
2018-03-29T19:09:12.933Z,53.47
2018-03-29T19:11:39.349Z,62.33
2018-03-29T19:14:05.751Z,53.23
2018-03-29T19:16:32.185Z,48.03
2018-03-29T19:18:58.603Z,49.13
2018-03-29T19:21:25.080Z,55.20
2018-03-29T19:23:51.562Z,52.17
2018-03-29T19:26:17.997Z,50.63
2018-03-29T19:28:44.481Z,37.93
2018-03-29T19:31:10.902Z,35.80
2018-03-29T19:33:37.330Z,33.80
2018-03-29T19:36:03.757Z,30.03
2018-03-29T19:38:30.198Z,27.00
2018-03-29T19:40:56.610Z,27.57
2018-03-29T19:43:23.078Z,30.27
2018-03-29T19:45:49.522Z,20.50
2018-03-29T19:48:15.927Z,24.80
2018-03-29T19:50:42.419Z,28.83
2018-03-29T19:53:08.873Z,36.90
2018-03-29T19:55:35.298Z,35.00
2018-03-29T19:58:01.701Z,38.83
2018-03-29T20:00:28.119Z,34.93
2018-03-29T20:02:54.554Z,34.27
2018-03-29T20:05:20.959Z,34.07
2018-03-29T20:07:47.394Z,37.43
2018-03-29T20:10:13.834Z,29.30
2018-03-29T20:12:40.248Z,25.83
2018-03-29T20:15:06.691Z,24.23
2018-03-29T20:17:33.149Z,28.13
2018-03-29T20:19:59.616Z,28.03
2018-03-29T20:22:26.024Z,35.07
2018-03-29T20:24:52.404Z,31.63
2018-03-29T20:27:18.800Z,31.07
2018-03-29T20:29:45.208Z,26.50
2018-03-29T20:32:11.617Z,26.50
2018-03-29T20:34:38.069Z,29.33
2018-03-29T20:37:04.413Z,27.73
2018-03-29T20:39:30.798Z,28.50
2018-03-29T20:41:57.334Z,32.70
2018-03-29T20:44:23.823Z,35.80
2018-03-29T20:46:50.253Z,30.30
2018-03-29T20:49:16.642Z,27.70
2018-03-29T20:51:43.069Z,26.33
2018-03-29T20:54:09.545Z,28.53
2018-03-29T20:56:35.910Z,21.13
2018-03-29T20:59:02.274Z,23.60
2018-03-29T21:01:28.706Z,19.33
2018-03-29T21:03:55.142Z,18.90
2018-03-29T21:06:21.550Z,19.63
2018-03-29T21:08:47.982Z,17.90
2018-03-29T21:11:14.405Z,20.40
2018-03-29T21:13:40.786Z,17.37
2018-03-29T21:16:07.225Z,20.70
2018-03-29T21:18:33.613Z,25.90
2018-03-29T21:21:00.010Z,22.17
2018-03-29T21:23:26.624Z,17.37
2018-03-29T21:25:53.028Z,16.47
2018-03-29T21:28:19.485Z,18.03
2018-03-29T21:30:45.910Z,15.30
2018-03-29T21:33:12.322Z,15.23
2018-03-29T21:35:38.751Z,17.27
2018-03-29T21:38:05.168Z,13.13
2018-03-29T21:40:31.659Z,13.37
2018-03-29T21:42:58.092Z,14.80
2018-03-29T21:45:24.479Z,14.97
2018-03-29T21:47:50.895Z,16.33
2018-03-29T21:50:17.344Z,15.97
2018-03-29T21:52:43.901Z,12.63
2018-03-29T21:55:10.301Z,15.53
2018-03-29T21:57:36.721Z,15.53
2018-03-29T22:00:03.207Z,15.17
2018-03-29T22:02:29.734Z,14.10
2018-03-29T22:04:56.161Z,14.83
2018-03-29T22:07:22.522Z,15.20
2018-03-29T22:09:48.910Z,14.93
2018-03-29T22:12:15.318Z,14.50
2018-03-29T22:14:41.698Z,13.10
2018-03-29T22:17:08.078Z,13.60
2018-03-29T22:19:34.481Z,11.27
2018-03-29T22:22:00.931Z,11.83
2018-03-29T22:24:27.335Z,11.63
2018-03-29T22:26:53.810Z,12.27
2018-03-29T22:29:20.250Z,13.03
2018-03-29T22:31:46.667Z,14.13
2018-03-29T22:34:13.117Z,16.17
2018-03-29T22:36:39.606Z,13.97
2018-03-29T22:39:06.076Z,11.50
2018-03-29T22:41:32.499Z,12.37
2018-03-29T22:43:58.942Z,15.23
2018-03-29T22:46:25.334Z,13.20
2018-03-29T22:48:51.810Z,14.73
2018-03-29T22:51:18.247Z,14.47
2018-03-29T22:53:44.738Z,13.40
2018-03-29T22:56:11.205Z,15.37
2018-03-29T22:58:37.573Z,12.83
2018-03-29T23:01:03.997Z,14.80
2018-03-29T23:03:30.401Z,13.73
2018-03-29T23:05:56.774Z,16.33
2018-03-29T23:08:23.177Z,16.07
2018-03-29T23:10:49.605Z,18.33
2018-03-29T23:13:16.062Z,15.70
2018-03-29T23:15:42.444Z,17.00
2018-03-29T23:18:08.878Z,17.13
2018-03-29T23:20:35.305Z,16.43
2018-03-29T23:23:01.762Z,17.97
2018-03-29T23:25:28.187Z,16.23
2018-03-29T23:27:54.649Z,17.73
2018-03-29T23:30:21.054Z,16.87
2018-03-29T23:32:47.413Z,17.63
2018-03-29T23:35:13.789Z,18.17
2018-03-29T23:37:40.210Z,14.87
2018-03-29T23:40:06.581Z,16.47
2018-03-29T23:42:32.966Z,21.27
2018-03-29T23:44:59.365Z,18.93
2018-03-29T23:47:25.766Z,18.73
2018-03-29T23:49:52.186Z,18.87
2018-03-29T23:52:18.626Z,16.93
2018-03-29T23:54:45.020Z,17.70
2018-03-29T23:57:11.461Z,19.33
2018-03-29T23:59:37.887Z,16.43
